Dakin Peak, Santa Catalina Island Weather observations

Data are for 10 minute period ending at time listed.
 Day   Time   Solar   Ave.   Ave.  Ave.  Vector    Max.   Stn.    Total
  of    of     Rad.   Air    Rel.  Wind   Wind     Wind   Baro.  Precip.
Year   Day            Temp.  Hum.  Speed  Dir.     Gust   Pres.         
2016   (PST)   W/m2    F      %     mph   deg.      mph    mb.     in.  
------------------------------------------------------------------------
 210    7:00  238.0    76   50.4     2    204.2     3.6    999.0   0.00  
 210    7:10  265.0    78   59.0     2    134.8     6.0    999.0   0.00  
 210    7:20  292.0    77   64.1     4    102.2     5.4    999.0   0.00  
 210    7:30  318.0    76   69.1     4    103.2     7.2    999.0   0.00  
 210    7:40  343.0    74   73.4     6    100.0     8.4    999.0   0.00  
 210    7:50  369.0    73   77.6     5    103.1     8.4    999.0   0.00  
 210    8:00  391.0    73   78.4     7    100.0    10.8    999.0   0.00  
 210    8:10  409.0    73   77.6     5     97.5     8.4    999.0   0.00  
 210    8:20  374.0    74   75.9     7    105.2    10.8    999.0   0.00  
 210    8:30  421.0    72   80.8     6    103.3     9.6    999.0   0.00  
 210    8:40  449.0    71   82.1     6    104.0    10.8    999.0   0.00  
 210    8:50  516.0    72   79.7     6    101.3     9.6    999.0   0.00  
 210    9:00  530.0    73   78.3     6    103.1    11.3    999.0   0.00  
 210    9:10  551.0    73   78.3     7    108.8    10.8    999.0   0.00  
 210    9:20  554.0    72   80.0     8    107.0    10.8    999.0   0.00  
 210    9:30  588.0    73   78.2     7    108.4    10.8    999.0   0.00  
 210    9:40  602.0    74   74.9     7    107.2    10.8    999.0   0.00  
 210    9:50  618.0    75   72.5     6    111.5     9.0    999.0   0.00  
 210   10:00  634.0    77   68.8     6    116.0     9.0    999.0   0.00  
 210   10:10  649.0    78   62.4     5    143.5    10.2    999.0   0.00  
 210   10:20  662.0    81   58.1     4    118.3     6.6    999.0   0.00  
 210   10:30  672.0    82   55.5     4    123.4     8.4    999.0   0.00  
 210   10:40  679.0    80   61.1     5    112.9     7.8    999.0   0.00  
 210   10:50  687.0    78   65.0     6    104.3    10.2    999.0   0.00  
 210   11:00  694.0    75   71.5     6    107.1    11.3    999.0   0.00  
 210   11:10  703.0    76   70.6     7    105.4    10.8    999.0   0.00  
 210   11:20  710.0    77   68.9     5    111.0     9.6    999.0   0.00  
 210   11:30  714.0    77   67.2     5    124.3     8.4    999.0   0.00  
 210   11:40  718.0    78   65.3     5    110.0     7.8    999.0   0.00  
 210   11:50  719.0    77   67.6     7    108.8     9.6    999.0   0.00  
 210   12:00  720.0    77   67.7     7    112.0    10.2    999.0   0.00  
 210   12:10  721.0    78   65.6     6    113.7     9.6    999.0   0.00  
 210   12:20  722.0    80   59.3     4    148.7     6.6    999.0   0.00  
 210   12:30  721.0    82   54.6     5    155.2    10.8    999.0   0.00  
 210   12:40  717.0    82   49.4     5    193.6    10.2    999.0   0.00  
 210   12:50  714.0    84   43.1     4    218.3     7.2    999.0   0.00  
 210   13:00  708.0    83   52.4     4    128.3     7.2    999.0   0.00  
 210   13:10  701.0    84   31.5     6    242.3     9.6    999.0   0.00  
 210   13:20  691.0    85   28.9     8    248.1    14.9    999.0   0.00  
 210   13:30  683.0    85   24.4     8    246.4    13.1    999.0   0.00  
 210   13:40  665.0    86   29.0     6    247.0    10.8    999.0   0.00  
 210   13:50  652.0    84   40.2     5    263.7    12.5    999.0   0.00  
 210   14:00  641.0    85   30.3     6    259.7    11.3    999.0   0.00  
 210   14:10  627.0    87   20.4     8    251.2    13.7    999.0   0.00  
 210   14:20  606.0    87   19.5    10    258.5    15.5    999.0   0.00  
 210   14:30  586.0    86   19.3    11    252.4    16.7    999.0   0.00  
 210   14:40  570.0    87   20.1     8    244.6    11.9    999.0   0.00  
 210   14:50  554.0    87   22.9     7    256.2    12.5    999.0   0.00  
 210   15:00  535.0    78   59.0     6     99.0     9.0    999.0   0.00  
 210   15:10  516.0    78   58.3     2    189.1     6.0    999.0   0.00  
 210   15:20  494.0    83   40.2     6    257.7    10.8    999.0   0.00  
 210   15:30  471.0    81   52.4     5    128.3    10.2    999.0   0.00  
 210   15:40  449.0    79   55.2     3    278.5     7.2    999.0   0.00  
 210   15:50  428.0    77   64.3     4    103.4     6.6    999.0   0.00  
 210   16:00  406.0    80   47.4     5    265.5    10.2    999.0   0.00  
 210   16:10  383.0    83   34.0     8    254.5    12.5    999.0   0.00  
 210   16:20  358.0    82   49.0     4    216.5     7.8    999.0   0.00  
 210   16:30  333.0    82   36.8     8    260.7    13.7    999.0   0.00  
 210   16:40  308.0    83   32.3     8    265.2    13.1    999.0   0.00  
 210   16:50  281.0    82   33.2     8    263.1    11.3    999.0   0.00  
 210   17:00  254.0    82   43.7     4    267.9     7.8    999.0   0.00  
 210   17:10  227.0    77   61.8     3     18.8     5.4    999.0   0.00  
 210   17:20  201.0    78   54.6     4    296.2     7.2    999.0   0.00  
 210   17:30  175.0    80   46.5     4    275.7     6.6    999.0   0.00  
 210   17:40  150.0    80   44.0     6    272.8     8.4    999.0   0.00  
 210   17:50  125.0    80   44.1     5    271.1     7.2    999.0   0.00  
 210   18:00  102.0    79   42.5     4    265.5     7.2    999.0   0.00  
 210   18:10   79.0    79   40.6     5    262.4     7.8    999.0   0.00  
 210   18:20   56.0    78   39.6     5    273.1     7.2    999.0   0.00  
 210   18:30   36.0    79   38.2     4    282.3     9.0    999.0   0.00  
 210   18:40   21.0    78   35.9     9    281.6    12.5    999.0   0.00  
 210   18:50   11.0    77   32.6    11    280.4    16.7    999.0   0.00  
 210   19:00    4.0    77   27.9    13    279.7    15.5    999.0   0.00  
 210   19:10    1.0    78   27.6    13    279.6    36.4    999.0   0.00  
 210   19:20    0.0    78   29.6     8    290.0    11.3    999.0   0.00  
 210   19:30    0.0    77   30.8     8    289.3    11.3    999.0   0.00  
 210   19:40    0.0    77   31.9    10    273.4    11.9    999.0   0.00  
 210   19:50    0.0    77   28.6    10    282.2    12.5    999.0   0.00  
 210   20:00    0.0    76   28.9     6    298.1     7.8    999.0   0.00  
 210   20:10    0.0    76   30.6     5    309.6     6.6    999.0   0.00  
 210   20:20    0.0    75   30.6     8    301.3    10.8    999.0   0.00  
 210   20:30    0.0    76   28.0    11    290.4    13.1    999.0   0.00  
 210   20:40    0.0    75   27.8    10    289.0    11.9    999.0   0.00  
 210   20:50    0.0    75   28.3     9    298.7    11.3    999.0   0.00  
 210   21:00    0.0    75   29.4     8    306.0     9.6    999.0   0.00  
 210   21:10    0.0    75   29.6     8    304.4    10.2    999.0   0.00  
 210   21:20    0.0    76   29.2     7    319.0     9.6    999.0   0.00  
 210   21:30    0.0    75   29.6     7    297.5     9.6    999.0   0.00  
 210   21:40    0.0    75   30.4     6    300.4     8.4    999.0   0.00  
 210   21:50    0.0    75   30.6     7    294.4     9.0    999.0   0.00  
 210   22:00    0.0    74   31.8     8    291.6     9.6    999.0   0.00  
 210   22:10    0.0    74   32.1     9    290.1    11.3    999.0   0.00  
 210   22:20    0.0    75   33.1     9    295.3    10.8    999.0   0.00  
 210   22:30    0.0    74   37.0     9    299.4    10.2    999.0   0.00  
 210   22:40    0.0    74   40.0     8    300.4     9.6    999.0   0.00  
 210   22:50    0.0    74   43.7     7    310.9     9.0    999.0   0.00  
 210   23:00    0.0    74   43.9     6    314.0     7.2    999.0   0.00  
 210   23:10    0.0    73   46.0     6    291.6     7.8    999.0   0.00  
 210   23:20    0.0    73   47.6     6    281.1     7.2    999.0   0.00  
 210   23:30    0.0    73   47.8     6    279.6     7.2    999.0   0.00  
 210   23:40    0.0    73   50.8     5    299.2     6.0    999.0   0.00  
 210   23:50    0.0    73   51.6     4    311.4     4.8    999.0   0.00  
 211    0:00    0.0    73   50.8     4    306.0     5.4    999.0   0.00  
 211    0:10    0.0    73   49.8     4    318.1     6.0    999.0   0.00  
 211    0:20    0.0    73   46.7     3    325.8     6.0    999.0   0.00  
 211    0:30    0.0    73   45.8     2    310.2     3.6    999.0   0.00  
 211    0:40    0.0    73   41.2     2    334.3     3.0    999.0   0.00  
 211    0:50    0.0    73   42.2     2    359.8     3.6    999.0   0.00  
 211    1:00    0.0    72   44.5     1     79.7     2.4    999.0   0.00  
 211    1:10    0.0    72   44.6     2    122.5     3.0    999.0   0.00  
 211    1:20    0.0    73   43.9     3    155.9     4.8    999.0   0.00  
 211    1:30    0.0    73   45.8     4    178.9     4.8    999.0   0.00  
 211    1:40    0.0    74   42.2     4    201.9     6.0    999.0   0.00  
 211    1:50    0.0    74   44.7     5    206.0     6.0    999.0   0.00  
 211    2:00    0.0    73   46.6     5    217.3     7.2    999.0   0.00  
 211    2:10    0.0    74   45.9     5    224.3     6.6    999.0   0.00  
 211    2:20    0.0    73   45.9     4    223.2     6.0    999.0   0.00  
 211    2:30    0.0    74   41.2     3    221.9     5.4    999.0   0.00  
 211    2:40    0.0    74   43.3     4    235.4     6.6    999.0   0.00  
 211    2:50    0.0    73   41.8     5    222.8     6.6    999.0   0.00  
 211    3:00    0.0    74   41.7     3    215.6     4.8    999.0   0.00  
 211    3:10    0.0    74   41.0     6    221.3     6.6    999.0   0.00  
 211    3:20    0.0    73   43.0     5    218.7     7.8    999.0   0.00  
 211    3:30    0.0    72   45.3     7    222.8     8.4    999.0   0.00  
 211    3:40    0.0    72   46.9     7    223.1     8.4    999.0   0.00  
 211    3:50    0.0    72   46.4     7    226.7     8.4    999.0   0.00  
 211    4:00    0.0    74   39.0     5    216.5     7.8    999.0   0.00  
 211    4:10    0.0    74   40.1     6    236.6     8.4    999.0   0.00  
 211    4:20    0.0    73   39.9     6    223.0     9.6    999.0   0.00  
 211    4:30    0.0    73   41.5     5    216.3     9.6    999.0   0.00  
 211    4:40    0.0    73   41.5     5    241.8     7.2    999.0   0.00  
 211    4:50    0.0    73   42.0     4    199.6     6.0    999.0   0.00  
 211    5:00    0.0    74   37.9     4    233.3     6.0    999.0   0.00  
 211    5:10    3.0    73   42.3     0     61.5     2.4    999.0   0.00  
 211    5:20    8.0    70   52.9     3    110.4     4.2    999.0   0.00  
 211    5:30   18.0    71   49.9     2    120.4     3.6    999.0   0.00  
 211    5:40   34.0    69   61.3     3    131.4     4.8    999.0   0.00  
 211    5:50   53.0    70   64.6     3    141.2     4.8    999.0   0.00  
 211    6:00   77.0    72   53.1     4    186.9     5.4    999.0   0.00  
 211    6:10  100.0    72   49.1     6    233.0     7.2    999.0   0.00  
 211    6:20  124.0    74   41.6     7    246.7     8.4    999.0   0.00  
 211    6:30  149.0    76   41.9     3    226.2     7.2    999.0   0.00  
 211    6:40  175.0    76   37.4     3    229.7     4.2    999.0   0.00  
 211    6:50  201.0    77   38.4     3    233.5     5.4    999.0   0.00  

Return to Dakin Peak graphs page.


Western Regional Climate Center,wrcc@dri.edu